createdAt,value
2018-08-09T00:01:13.678Z,25.50
2018-08-09T00:03:46.414Z,25.50
2018-08-09T00:06:19.342Z,25.50
2018-08-09T00:08:51.757Z,25.40
2018-08-09T00:11:24.194Z,25.40
2018-08-09T00:13:56.550Z,25.30
2018-08-09T00:16:28.956Z,25.30
2018-08-09T00:19:02.084Z,25.20
2018-08-09T00:21:35.002Z,25.30
2018-08-09T00:24:07.598Z,25.30
2018-08-09T00:26:40.078Z,25.20
2018-08-09T00:29:12.479Z,25.20
2018-08-09T00:31:44.901Z,25.20
2018-08-09T00:34:17.293Z,25.20
2018-08-09T00:36:49.630Z,25.20
2018-08-09T00:39:22.044Z,25.10
2018-08-09T00:41:54.431Z,25.00
2018-08-09T00:44:26.822Z,25.00
2018-08-09T00:47:00.444Z,25.00
2018-08-09T00:49:32.871Z,24.90
2018-08-09T00:52:05.562Z,24.80
2018-08-09T00:54:38.232Z,24.80
2018-08-09T00:57:10.589Z,24.80
2018-08-09T00:59:42.976Z,24.80
2018-08-09T01:02:15.338Z,24.80
2018-08-09T01:04:47.853Z,24.80
2018-08-09T01:07:20.266Z,24.80
2018-08-09T01:09:52.696Z,24.60
2018-08-09T01:12:25.135Z,24.50
2018-08-09T01:14:57.486Z,24.40
2018-08-09T01:17:29.904Z,24.20
2018-08-09T01:20:02.339Z,24.20
2018-08-09T01:22:34.820Z,24.00
2018-08-09T01:25:07.211Z,23.90
2018-08-09T01:27:39.715Z,23.80
2018-08-09T01:30:12.085Z,23.80
2018-08-09T01:32:44.493Z,23.80
2018-08-09T01:35:16.879Z,23.80
2018-08-09T01:37:49.257Z,23.80
2018-08-09T01:40:21.676Z,23.80
2018-08-09T01:43:05.695Z,23.70
2018-08-09T01:45:38.087Z,23.60
2018-08-09T01:48:10.455Z,23.50
2018-08-09T01:50:42.879Z,23.60
2018-08-09T01:53:15.297Z,23.60
2018-08-09T01:55:47.676Z,23.50
2018-08-09T01:58:20.056Z,23.50
2018-08-09T02:00:52.415Z,23.40
2018-08-09T02:03:24.818Z,23.50
2018-08-09T02:05:57.197Z,23.50
2018-08-09T02:08:29.592Z,23.50
2018-08-09T02:11:02.004Z,23.40
2018-08-09T02:13:34.426Z,23.40
2018-08-09T02:16:07.012Z,23.40
2018-08-09T02:18:39.497Z,23.40
2018-08-09T02:21:11.887Z,23.40
2018-08-09T02:23:44.233Z,23.30
2018-08-09T02:26:16.651Z,23.30
2018-08-09T02:28:49.114Z,23.30
2018-08-09T02:31:21.517Z,23.30
2018-08-09T02:33:53.907Z,23.30
2018-08-09T02:36:26.263Z,23.20
2018-08-09T02:38:58.694Z,23.20
2018-08-09T02:41:31.066Z,23.20
2018-08-09T02:44:03.484Z,23.20
2018-08-09T02:46:36.145Z,23.10
2018-08-09T02:49:08.598Z,23.10
2018-08-09T02:51:40.998Z,23.10
2018-08-09T02:54:13.385Z,23.20
2018-08-09T02:56:45.829Z,23.20
2018-08-09T02:59:18.201Z,23.10
2018-08-09T03:01:50.606Z,22.90
2018-08-09T03:04:23.058Z,22.90
2018-08-09T03:06:55.487Z,22.90
2018-08-09T03:09:27.891Z,22.90
2018-08-09T03:12:00.337Z,22.90
2018-08-09T03:14:32.695Z,22.90
2018-08-09T03:17:05.133Z,22.80
2018-08-09T03:19:38.394Z,22.80
2018-08-09T03:22:11.102Z,22.80
2018-08-09T03:24:43.451Z,22.80
2018-08-09T03:27:15.858Z,22.80
2018-08-09T03:29:48.252Z,22.80
2018-08-09T03:32:20.672Z,22.70
2018-08-09T03:37:25.430Z,22.60
2018-08-09T03:39:57.812Z,22.60
2018-08-09T03:42:30.206Z,22.60
2018-08-09T03:45:02.954Z,22.50
2018-08-09T03:47:35.299Z,22.50
2018-08-09T03:50:08.630Z,22.50
2018-08-09T03:52:41.031Z,22.40
2018-08-09T03:55:13.422Z,22.40
2018-08-09T03:57:45.852Z,22.40
2018-08-09T04:00:18.217Z,22.40
2018-08-09T04:02:50.568Z,22.30
2018-08-09T04:05:23.020Z,22.40
2018-08-09T04:07:55.417Z,22.30
2018-08-09T04:10:29.063Z,22.30
2018-08-09T04:13:01.436Z,22.30
2018-08-09T04:15:33.824Z,22.20
2018-08-09T04:18:06.300Z,22.20
2018-08-09T04:20:38.770Z,22.20
2018-08-09T04:23:11.476Z,22.20
2018-08-09T04:25:44.167Z,22.30
2018-08-09T04:28:16.745Z,22.20
2018-08-09T04:30:49.234Z,22.20
2018-08-09T04:33:21.633Z,22.20
2018-08-09T04:35:54.319Z,22.20
2018-08-09T04:40:59.794Z,22.10
2018-08-09T04:43:32.294Z,22.10
2018-08-09T04:48:38.198Z,22.20
2018-08-09T04:51:11.232Z,22.30
2018-08-09T04:53:43.828Z,22.30
2018-08-09T04:56:16.479Z,22.20
2018-08-09T04:58:49.676Z,22.30
2018-08-09T05:01:22.736Z,22.30
2018-08-09T05:06:27.762Z,22.20
2018-08-09T05:09:00.195Z,22.30
2018-08-09T05:11:41.800Z,22.20
2018-08-09T05:14:14.243Z,22.30
2018-08-09T05:16:46.903Z,22.30
2018-08-09T05:19:19.567Z,22.20
2018-08-09T05:21:51.934Z,22.10
2018-08-09T05:24:24.309Z,22.20
2018-08-09T05:26:56.745Z,22.30
2018-08-09T05:29:29.313Z,22.30
2018-08-09T05:32:02.564Z,22.40
2018-08-09T05:34:35.037Z,22.40
2018-08-09T05:37:07.650Z,22.40
2018-08-09T05:39:40.036Z,22.40
2018-08-09T05:42:12.459Z,22.40
2018-08-09T05:44:44.853Z,22.60
2018-08-09T05:47:17.269Z,22.60
2018-08-09T05:49:49.655Z,22.90
2018-08-09T05:52:22.256Z,22.80
2018-08-09T05:54:55.021Z,23.00
2018-08-09T05:57:27.642Z,22.90
2018-08-09T06:00:00.032Z,23.00
2018-08-09T06:02:32.494Z,23.00
2018-08-09T06:05:05.186Z,23.10
2018-08-09T06:07:37.618Z,23.00
2018-08-09T06:10:10.277Z,22.90
2018-08-09T06:12:44.065Z,22.90
2018-08-09T06:15:16.517Z,23.00
2018-08-09T06:17:48.993Z,23.10
2018-08-09T06:20:21.752Z,23.30
2018-08-09T06:22:54.113Z,23.40
2018-08-09T06:25:26.526Z,23.40
2018-08-09T06:27:59.275Z,23.50
2018-08-09T06:30:31.682Z,23.60
2018-08-09T06:33:04.773Z,23.60
2018-08-09T06:35:37.172Z,23.70
2018-08-09T06:38:09.602Z,23.60
2018-08-09T06:40:42.118Z,23.70
2018-08-09T06:43:14.754Z,23.70
2018-08-09T06:45:47.149Z,23.60
2018-08-09T06:48:19.616Z,23.70
2018-08-09T06:50:52.012Z,23.70
2018-08-09T06:53:25.687Z,23.80
2018-08-09T06:55:58.474Z,23.90
2018-08-09T06:58:31.155Z,24.10
2018-08-09T07:01:03.801Z,24.00
2018-08-09T07:03:36.393Z,24.10
2018-08-09T07:25:39.851Z,24.60
2018-08-09T07:28:12.470Z,24.70
2018-08-09T07:30:45.318Z,24.80
2018-08-09T07:33:17.882Z,24.80
2018-08-09T07:35:50.565Z,24.80
2018-08-09T07:38:23.273Z,24.90
2018-08-09T07:40:55.837Z,24.90
2018-08-09T07:43:29.349Z,24.90
2018-08-09T07:46:01.939Z,25.00
2018-08-09T07:48:34.704Z,25.10
2018-08-09T07:51:07.494Z,25.30
2018-08-09T07:53:40.004Z,25.40
2018-08-09T07:56:12.509Z,25.30
2018-08-09T07:58:44.954Z,25.40
2018-08-09T08:01:17.606Z,25.40
2018-08-09T08:03:50.173Z,25.30
2018-08-09T08:06:22.825Z,25.40
2018-08-09T08:08:55.461Z,25.40
2018-08-09T08:14:12.908Z,25.60
2018-08-09T08:16:45.419Z,25.50
2018-08-09T08:19:18.143Z,25.60
2018-08-09T08:21:50.881Z,25.50
2018-08-09T08:24:23.486Z,25.60
2018-08-09T08:26:56.222Z,25.80
2018-08-09T08:29:29.163Z,25.90
2018-08-09T08:32:03.288Z,26.00
2018-08-09T08:34:35.979Z,25.90
2018-08-09T08:37:08.715Z,25.90
2018-08-09T08:39:41.435Z,26.00
2018-08-09T08:42:14.120Z,26.00
2018-08-09T08:44:46.779Z,25.90
2018-08-09T08:47:19.415Z,25.90
2018-08-09T08:49:52.117Z,25.90
2018-08-09T08:52:25.441Z,25.90
2018-08-09T08:54:58.132Z,25.90
2018-08-09T08:57:30.831Z,26.10
2018-08-09T09:00:05.164Z,26.20
2018-08-09T09:02:38.341Z,26.40
2018-08-09T09:05:11.981Z,26.50
2018-08-09T09:07:44.633Z,26.50
2018-08-09T09:10:17.463Z,26.60
2018-08-09T09:12:50.176Z,26.60
2018-08-09T09:15:22.852Z,26.70
2018-08-09T09:17:55.574Z,26.80
2018-08-09T09:20:28.263Z,26.90
2018-08-09T09:23:00.903Z,27.00
2018-08-09T09:25:33.478Z,27.10
2018-08-09T09:28:06.032Z,27.00
2018-08-09T09:30:38.466Z,27.00
2018-08-09T09:33:11.394Z,27.20
2018-08-09T09:35:44.287Z,27.40
2018-08-09T09:38:16.712Z,27.40
2018-08-09T09:40:49.370Z,27.40
2018-08-09T09:43:22.679Z,27.60
2018-08-09T09:45:55.202Z,27.80
2018-08-09T09:48:27.933Z,27.90
2018-08-09T09:51:00.555Z,27.90
2018-08-09T09:53:33.184Z,27.90
2018-08-09T09:56:06.153Z,28.00
2018-08-09T09:58:39.323Z,27.90
2018-08-09T10:01:17.573Z,28.00
2018-08-09T10:03:50.258Z,28.10
2018-08-09T10:06:23.107Z,28.20
2018-08-09T10:08:56.049Z,28.30
2018-08-09T10:11:28.571Z,28.40
2018-08-09T10:14:01.167Z,28.20
2018-08-09T10:16:33.622Z,28.10
2018-08-09T10:19:06.235Z,28.20
2018-08-09T10:21:38.681Z,28.30
2018-08-09T10:24:11.158Z,28.40
2018-08-09T10:26:43.759Z,28.60
2018-08-09T10:29:16.154Z,28.90
2018-08-09T10:31:48.762Z,28.90
2018-08-09T10:34:21.306Z,29.00
2018-08-09T10:36:53.768Z,29.10
2018-08-09T10:39:26.274Z,29.30
2018-08-09T10:41:58.801Z,29.50
2018-08-09T10:44:31.351Z,29.60
2018-08-09T10:47:03.954Z,29.70
2018-08-09T10:49:36.840Z,29.80
2018-08-09T10:52:09.563Z,29.80
2018-08-09T10:54:42.462Z,29.80
2018-08-09T10:57:15.301Z,29.90
2018-08-09T11:02:20.208Z,30.10
2018-08-09T11:04:52.629Z,30.10
2018-08-09T11:07:25.425Z,30.10
2018-08-09T11:09:58.097Z,30.10
2018-08-09T11:12:30.698Z,30.30
2018-08-09T11:15:04.183Z,30.40
2018-08-09T11:17:36.860Z,30.60
2018-08-09T11:29:25.393Z,30.50
2018-08-09T11:31:58.517Z,30.80
2018-08-09T11:34:31.238Z,30.90
2018-08-09T11:37:04.130Z,30.90
2018-08-09T11:39:36.875Z,30.80
2018-08-09T11:42:09.293Z,30.90
2018-08-09T11:44:41.848Z,31.00
2018-08-09T11:47:14.455Z,30.90
2018-08-09T11:49:47.008Z,30.90
2018-08-09T11:52:19.713Z,30.90
2018-08-09T11:54:52.771Z,30.90
2018-08-09T11:57:25.727Z,31.00
2018-08-09T11:59:58.683Z,31.20
2018-08-09T12:02:31.328Z,31.40
2018-08-09T12:05:03.770Z,31.40
2018-08-09T12:07:36.332Z,31.40
2018-08-09T12:10:08.941Z,31.60
2018-08-09T12:12:41.605Z,31.60
2018-08-09T12:15:14.060Z,31.70
2018-08-09T12:17:47.348Z,31.80
2018-08-09T12:20:21.075Z,31.90
2018-08-09T12:22:53.662Z,31.70
2018-08-09T12:25:26.444Z,31.60
2018-08-09T12:27:58.984Z,31.50
2018-08-09T12:30:31.706Z,31.70
2018-08-09T12:33:04.375Z,31.80
2018-08-09T12:35:36.872Z,31.90
2018-08-09T12:38:11.223Z,32.00
2018-08-09T12:40:43.681Z,31.90
2018-08-09T12:43:16.669Z,32.00
2018-08-09T12:45:49.595Z,32.10
2018-08-09T12:48:22.512Z,32.20
2018-08-09T12:50:55.503Z,32.30
2018-08-09T12:53:27.943Z,32.30
2018-08-09T12:56:01.028Z,32.40
2018-08-09T12:58:33.748Z,32.50
2018-08-09T13:01:06.902Z,32.40
2018-08-09T13:03:40.055Z,32.30
2018-08-09T13:06:12.785Z,32.30
2018-08-09T13:08:45.353Z,32.50
2018-08-09T13:11:21.245Z,32.60
2018-08-09T13:13:54.184Z,32.60
2018-08-09T13:16:26.781Z,32.70
2018-08-09T13:19:05.840Z,32.60
2018-08-09T13:21:39.143Z,33.00
2018-08-09T13:24:11.737Z,32.80
2018-08-09T13:26:44.245Z,32.90
2018-08-09T13:29:17.066Z,32.90
2018-08-09T13:31:49.753Z,33.00
2018-08-09T13:34:22.594Z,32.90
2018-08-09T13:36:55.356Z,32.60
2018-08-09T13:39:28.068Z,32.40
2018-08-09T13:42:00.894Z,32.30
2018-08-09T13:44:33.335Z,32.60
2018-08-09T13:47:06.391Z,32.60
2018-08-09T13:49:39.083Z,32.70
2018-08-09T13:52:12.361Z,32.90
2018-08-09T13:54:45.055Z,33.00
2018-08-09T13:57:17.779Z,33.10
2018-08-09T13:59:50.206Z,33.00
2018-08-09T14:02:22.839Z,32.90
2018-08-09T14:04:55.583Z,32.90
2018-08-09T14:07:28.420Z,33.10
2018-08-09T14:10:01.563Z,33.10
2018-08-09T14:12:36.557Z,33.40
2018-08-09T14:15:10.845Z,33.40
2018-08-09T14:17:43.854Z,33.40
2018-08-09T14:20:17.541Z,33.40
2018-08-09T14:22:50.156Z,33.70
2018-08-09T14:27:55.593Z,33.60
2018-08-09T14:30:28.582Z,33.80
2018-08-09T14:33:01.453Z,33.80
2018-08-09T14:35:34.286Z,33.90
2018-08-09T14:38:06.700Z,33.90
2018-08-09T14:40:39.534Z,33.90
2018-08-09T14:43:12.054Z,33.70
2018-08-09T14:45:44.693Z,33.70
2018-08-09T14:48:17.597Z,33.70
2018-08-09T14:50:50.145Z,33.70
2018-08-09T14:53:23.184Z,33.70
2018-08-09T14:55:55.623Z,33.60
2018-08-09T14:58:28.945Z,33.50
2018-08-09T15:01:01.731Z,33.40
2018-08-09T15:03:34.344Z,33.30
2018-08-09T15:06:07.089Z,33.20
2018-08-09T15:08:40.028Z,33.20
2018-08-09T15:11:12.781Z,33.20
2018-08-09T15:13:45.441Z,33.30
2018-08-09T15:16:18.314Z,33.30
2018-08-09T15:18:51.435Z,33.40
2018-08-09T15:21:24.920Z,33.40
2018-08-09T15:23:57.412Z,33.40
2018-08-09T15:26:29.917Z,33.40
2018-08-09T15:29:02.717Z,33.40
2018-08-09T15:31:35.574Z,33.20
2018-08-09T15:34:08.164Z,33.10
2018-08-09T15:36:40.955Z,33.20
2018-08-09T15:39:14.089Z,33.10
2018-08-09T15:41:47.692Z,33.00
2018-08-09T15:44:20.684Z,32.90
2018-08-09T15:46:53.515Z,32.90
2018-08-09T15:49:26.296Z,33.00
2018-08-09T15:51:59.159Z,33.00
2018-08-09T15:54:32.154Z,32.90
2018-08-09T15:57:05.044Z,32.90
2018-08-09T15:59:37.662Z,32.80
2018-08-09T16:02:10.447Z,32.90
2018-08-09T16:04:43.170Z,32.90
2018-08-09T16:07:15.902Z,32.90
2018-08-09T16:09:48.464Z,33.00
2018-08-09T16:12:21.336Z,32.90
2018-08-09T16:14:54.195Z,33.00
2018-08-09T16:17:27.234Z,33.00
2018-08-09T16:20:00.035Z,33.00
2018-08-09T16:22:34.662Z,33.00
2018-08-09T16:25:10.114Z,33.10
2018-08-09T16:27:42.558Z,33.10
2018-08-09T16:30:18.957Z,33.00
2018-08-09T16:32:51.577Z,33.00
2018-08-09T16:35:24.361Z,32.90
2018-08-09T16:37:57.603Z,32.90
2018-08-09T16:40:30.350Z,32.90
2018-08-09T16:43:03.068Z,32.90
2018-08-09T16:45:35.592Z,32.80
2018-08-09T16:48:08.450Z,32.80
2018-08-09T16:50:41.270Z,32.90
2018-08-09T16:53:13.874Z,32.80
2018-08-09T16:55:46.477Z,32.80
2018-08-09T16:58:19.191Z,32.60
2018-08-09T17:00:51.712Z,32.70
2018-08-09T17:03:24.991Z,32.60
2018-08-09T17:05:57.708Z,32.60
2018-08-09T17:08:30.432Z,32.50
2018-08-09T17:11:03.289Z,32.40
2018-08-09T17:13:36.580Z,32.40
2018-08-09T17:16:09.414Z,32.40
2018-08-09T17:18:42.104Z,32.30
2018-08-09T17:21:14.769Z,32.20
2018-08-09T17:23:47.622Z,32.10
2018-08-09T17:26:20.291Z,32.00
2018-08-09T17:28:53.084Z,32.00
2018-08-09T17:31:25.861Z,32.00
2018-08-09T17:33:58.840Z,31.90
2018-08-09T17:36:31.699Z,31.80
2018-08-09T17:39:08.566Z,31.70
2018-08-09T17:41:41.264Z,31.60
2018-08-09T17:44:14.053Z,31.60
2018-08-09T17:46:46.883Z,31.60
2018-08-09T17:49:19.709Z,31.50
2018-08-09T17:51:52.700Z,31.50
2018-08-09T17:54:25.247Z,31.40
2018-08-09T17:56:58.090Z,31.40
2018-08-09T17:59:30.609Z,31.30
2018-08-09T18:02:03.476Z,31.30
2018-08-09T18:04:36.137Z,31.20
2018-08-09T18:07:08.850Z,31.10
2018-08-09T18:09:41.574Z,31.10
2018-08-09T18:12:14.784Z,31.00
2018-08-09T18:14:47.438Z,31.00
2018-08-09T18:17:20.325Z,30.90
2018-08-09T18:19:53.077Z,30.90
2018-08-09T18:22:25.570Z,30.80
2018-08-09T18:24:58.446Z,30.80
2018-08-09T18:27:31.151Z,30.80
2018-08-09T18:30:06.691Z,30.80
2018-08-09T18:32:39.808Z,30.80
2018-08-09T18:35:14.630Z,30.80
2018-08-09T18:37:47.379Z,30.80
2018-08-09T18:40:23.464Z,30.80
2018-08-09T18:42:56.179Z,30.70
2018-08-09T18:45:29.064Z,30.70
2018-08-09T18:48:01.524Z,30.60
2018-08-09T18:50:34.267Z,30.60
2018-08-09T18:53:07.319Z,30.70
2018-08-09T18:55:39.740Z,30.70
2018-08-09T18:58:12.605Z,30.60
2018-08-09T19:00:45.441Z,30.50
2018-08-09T19:03:18.321Z,30.50
2018-08-09T19:05:51.783Z,30.40
2018-08-09T19:10:57.284Z,30.30
2018-08-09T19:13:29.883Z,30.30
2018-08-09T19:16:03.942Z,30.10
2018-08-09T19:21:09.175Z,30.00
2018-08-09T19:23:41.603Z,30.00
2018-08-09T19:26:14.164Z,29.90
2018-08-09T19:28:46.994Z,29.80
2018-08-09T19:31:19.447Z,29.80
2018-08-09T19:33:52.301Z,29.80
2018-08-09T19:36:24.890Z,29.70
2018-08-09T19:38:57.429Z,29.70
2018-08-09T19:41:29.866Z,29.70
2018-08-09T19:44:02.329Z,29.70
2018-08-09T19:46:36.299Z,29.60
2018-08-09T19:49:08.974Z,29.60
2018-08-09T19:51:41.409Z,29.60
2018-08-09T19:54:14.046Z,29.50
2018-08-09T19:56:46.415Z,28.30
2018-08-09T19:59:19.210Z,27.80
2018-08-09T20:01:51.669Z,27.50
2018-08-09T20:04:24.241Z,27.30
2018-08-09T20:06:56.852Z,26.90
2018-08-09T20:09:29.326Z,26.80
2018-08-09T20:12:01.950Z,26.60
2018-08-09T20:17:07.311Z,26.10
2018-08-09T20:19:39.890Z,26.00
2018-08-09T20:22:15.395Z,25.80
2018-08-09T20:24:47.943Z,25.50
2018-08-09T20:27:20.529Z,25.20
2018-08-09T20:29:53.478Z,24.90
2018-08-09T20:32:25.995Z,24.50
2018-08-09T20:34:58.611Z,24.20
2018-08-09T20:37:31.439Z,24.10
2018-08-09T20:40:05.230Z,24.00
2018-08-09T20:42:38.172Z,23.80
2018-08-09T20:45:12.347Z,23.80
2018-08-09T20:47:46.204Z,23.80
2018-08-09T20:50:20.584Z,23.80
2018-08-09T20:52:53.314Z,23.70
2018-08-09T20:55:26.226Z,23.70
2018-08-09T20:57:58.970Z,23.70
2018-08-09T21:00:33.106Z,23.70
2018-08-09T21:03:05.845Z,23.80
2018-08-09T21:05:38.820Z,23.80
2018-08-09T21:08:12.950Z,23.80
2018-08-09T21:10:45.541Z,23.90
2018-08-09T21:13:17.969Z,23.90
2018-08-09T21:15:50.581Z,23.90
2018-08-09T21:18:23.465Z,23.80
2018-08-09T21:20:56.148Z,23.90
2018-08-09T21:23:29.000Z,23.90
2018-08-09T21:26:01.601Z,24.00
2018-08-09T21:28:36.030Z,23.90
2018-08-09T21:31:08.798Z,24.00
2018-08-09T21:33:41.594Z,23.90
2018-08-09T21:36:14.299Z,23.90
2018-08-09T21:38:47.231Z,23.90
2018-08-09T21:41:19.769Z,23.90
2018-08-09T21:43:52.644Z,23.90
2018-08-09T21:46:25.354Z,23.80
2018-08-09T21:48:58.838Z,23.90
2018-08-09T21:51:31.434Z,23.90
2018-08-09T21:54:04.012Z,23.90
2018-08-09T21:56:36.867Z,24.00
2018-08-09T21:59:09.560Z,24.10
2018-08-09T22:01:42.294Z,24.10
2018-08-09T22:04:14.938Z,24.20
2018-08-09T22:06:53.493Z,24.10
2018-08-09T22:09:33.579Z,24.10
2018-08-09T22:13:11.597Z,24.00
2018-08-09T22:15:50.047Z,23.80
2018-08-09T22:18:28.516Z,23.70
2018-08-09T22:21:07.072Z,23.60
2018-08-09T22:23:39.776Z,23.70
2018-08-09T22:26:12.648Z,23.60
2018-08-09T22:28:45.545Z,23.50
2018-08-09T22:33:52.682Z,23.30
2018-08-09T22:36:25.153Z,23.30
2018-08-09T22:38:58.006Z,23.30
2018-08-09T22:41:30.612Z,23.20
2018-08-09T22:44:03.835Z,23.20
2018-08-09T22:46:36.322Z,23.20
2018-08-09T22:49:08.920Z,23.20
2018-08-09T22:51:43.305Z,23.10
2018-08-09T22:54:15.930Z,23.10
2018-08-09T22:56:48.689Z,23.10
2018-08-09T22:59:21.717Z,23.10
2018-08-09T23:01:54.349Z,23.00
2018-08-09T23:04:27.177Z,22.90
2018-08-09T23:06:59.935Z,22.90
2018-08-09T23:09:32.617Z,22.90
2018-08-09T23:12:05.576Z,22.90
2018-08-09T23:14:38.473Z,22.90
2018-08-09T23:17:11.024Z,22.90
2018-08-09T23:19:43.961Z,22.80
2018-08-09T23:22:19.302Z,22.80
2018-08-09T23:24:52.014Z,22.70
2018-08-09T23:27:24.656Z,22.70
2018-08-09T23:29:57.239Z,22.70
2018-08-09T23:32:29.947Z,22.70
2018-08-09T23:35:02.622Z,22.70
2018-08-09T23:37:35.634Z,22.70
2018-08-09T23:40:09.928Z,22.60
2018-08-09T23:42:42.646Z,22.70
2018-08-09T23:45:15.314Z,22.60
2018-08-09T23:47:47.896Z,22.70
2018-08-09T23:50:20.428Z,22.70
2018-08-09T23:52:53.660Z,22.70
2018-08-09T23:55:26.037Z,22.80
2018-08-09T23:57:58.453Z,22.80
